Time;durP1;ratioP1;P1;durP2;ratioP2;P2;SDS_P1;SDS_P2;PMS_P1;PMS_P2;Temp;Humidity;BMP_temperature;BMP_pressure;BME280_temperature;BME280_humidity;BME280_pressure;Samples;Min_cycle;Max_cycle;Signal;HPM_P1;HPM_P2
2023/06/16 00:01:22;;;;;;;9.82;5.63;;;;;;;18.55;100.00;102036.03;5030869;28;20064;-60
2023/06/16 00:03:49;;;;;;;12.32;5.97;;;;;;;18.54;100.00;102030.75;5050331;28;20381;-59
2023/06/16 00:06:15;;;;;;;10.35;5.20;;;;;;;18.56;100.00;102035.09;5049850;28;20044;-60
2023/06/16 00:08:45;;;;;;;9.18;5.50;;;;;;;18.54;100.00;102030.75;5049544;28;20036;-60
2023/06/16 00:11:15;;;;;;;7.70;5.78;;;;;;;18.58;100.00;102032.38;5048700;28;20037;-61
2023/06/16 00:13:40;;;;;;;7.05;5.10;;;;;;;18.59;100.00;102025.19;5031661;28;20036;-61
2023/06/16 00:16:06;;;;;;;6.78;4.93;;;;;;;18.57;100.00;102019.94;5048973;28;20408;-61
2023/06/16 00:18:31;;;;;;;7.40;5.13;;;;;;;18.51;100.00;102028.28;5049609;28;20112;-60
2023/06/16 00:21:02;;;;;;;11.80;4.90;;;;;;;18.54;100.00;102028.09;5049181;28;20040;-58
2023/06/16 00:23:28;;;;;;;8.25;5.05;;;;;;;18.51;100.00;102023.78;5049485;28;20477;-60
2023/06/16 00:25:53;;;;;;;9.65;5.10;;;;;;;18.50;100.00;102030.06;5048370;28;20112;-60
2023/06/16 00:28:19;;;;;;;9.77;4.97;;;;;;;18.54;100.00;102033.44;5049280;28;20036;-57
2023/06/16 00:30:45;;;;;;;9.98;5.55;;;;;;;18.58;100.00;102020.81;5048297;28;20045;-61
2023/06/16 00:33:10;;;;;;;9.02;4.82;;;;;;;18.58;100.00;102031.50;5049174;28;20036;-59
2023/06/16 00:35:36;;;;;;;9.80;5.18;;;;;;;18.54;100.00;102026.28;5049386;28;20080;-59
2023/06/16 00:38:01;;;;;;;7.20;4.88;;;;;;;18.51;100.00;102028.28;5048873;28;20088;-59
2023/06/16 00:40:26;;;;;;;12.45;5.22;;;;;;;18.44;100.00;102023.22;5049698;28;20358;-62
2023/06/16 00:42:53;;;;;;;6.75;4.82;;;;;;;18.48;100.00;102034.59;5049144;28;20370;-61
2023/06/16 00:45:19;;;;;;;8.65;4.60;;;;;;;18.48;100.00;102026.59;5049115;28;20024;-62
2023/06/16 00:47:44;;;;;;;7.75;4.97;;;;;;;18.45;100.00;102024.06;5048962;28;20374;-60
2023/06/16 00:50:10;;;;;;;7.43;4.80;;;;;;;18.42;100.00;102027.75;5030698;28;20833;-61
2023/06/16 00:52:36;;;;;;;7.55;5.10;;;;;;;18.37;100.00;102021.81;5048271;28;20029;-60
2023/06/16 00:55:02;;;;;;;6.82;4.80;;;;;;;18.34;100.00;102018.41;5030704;28;20036;-60
2023/06/16 00:57:29;;;;;;;11.10;4.68;;;;;;;18.32;100.00;102023.81;5048587;28;20024;-60
2023/06/16 00:59:55;;;;;;;5.43;4.55;;;;;;;18.29;100.00;102016.81;5047121;28;20465;-60
2023/06/16 01:02:20;;;;;;;9.25;4.90;;;;;;;18.31;100.00;102022.94;5031317;28;20031;-62
2023/06/16 01:04:47;;;;;;;8.15;5.00;;;;;;;18.29;100.00;102022.16;5048651;28;20470;-60
2023/06/16 01:07:40;;;;;;;15.85;5.65;;;;;;;18.33;100.00;102016.69;5048088;28;20030;-62
2023/06/16 01:10:23;;;;;;;11.60;5.53;;;;;;;18.28;100.00;102019.56;5047820;28;20047;-61
2023/06/16 01:12:57;;;;;;;6.28;5.00;;;;;;;18.24;100.00;102013.50;5048279;28;20048;-61
2023/06/16 01:15:25;;;;;;;6.97;5.10;;;;;;;18.20;100.00;102011.91;5047782;28;20031;-58
2023/06/16 01:17:54;;;;;;;9.60;4.82;;;;;;;18.15;100.00;102008.63;5029932;28;20032;-62
2023/06/16 01:20:48;;;;;;;10.00;5.60;;;;;;;18.09;100.00;102014.22;5014731;28;20033;-60
2023/06/16 01:23:50;;;;;;;9.95;4.70;;;;;;;18.06;100.00;102009.88;5029279;28;20041;-59
2023/06/16 01:26:16;;;;;;;9.05;5.00;;;;;;;18.04;100.00;102006.44;5048188;28;20098;-61
2023/06/16 01:28:43;;;;;;;7.43;5.40;;;;;;;18.04;100.00;102014.44;5048174;28;20049;-59
2023/06/16 01:31:12;;;;;;;9.75;5.03;;;;;;;17.97;100.00;102015.66;5035638;28;20044;-60
2023/06/16 01:33:38;;;;;;;7.00;5.40;;;;;;;17.96;100.00;102019.22;5035957;28;20021;-58
2023/06/16 01:36:05;;;;;;;10.25;5.43;;;;;;;17.93;100.00;102010.47;5026399;28;20143;-60
2023/06/16 01:38:30;;;;;;;9.07;5.22;;;;;;;17.92;100.00;102014.06;5027636;28;20120;-61
2023/06/16 01:40:57;;;;;;;8.50;5.43;;;;;;;17.91;100.00;102012.31;5044355;28;20104;-60
2023/06/16 01:43:22;;;;;;;10.40;5.57;;;;;;;17.90;100.00;102015.06;5045106;28;20024;-60
2023/06/16 01:45:49;;;;;;;12.75;5.55;;;;;;;17.84;100.00;102013.53;5039064;28;20037;-60
2023/06/16 01:48:15;;;;;;;8.73;5.28;;;;;;;17.84;100.00;102016.22;5039649;28;20032;-60
2023/06/16 01:50:41;;;;;;;8.35;5.40;;;;;;;17.79;100.00;102002.25;5045058;28;20409;-60
2023/06/16 01:53:06;;;;;;;9.40;5.65;;;;;;;17.77;100.00;101998.78;5043779;28;20036;-60
2023/06/16 01:55:31;;;;;;;9.27;5.63;;;;;;;17.76;100.00;102003.22;5044761;28;20059;-59
2023/06/16 01:57:57;;;;;;;8.52;5.70;;;;;;;17.76;100.00;102005.06;5044738;28;20029;-61
2023/06/16 02:00:26;;;;;;;7.38;5.93;;;;;;;17.72;100.00;101998.97;5026398;28;20064;-59
2023/06/16 02:02:57;;;;;;;8.25;5.32;;;;;;;17.69;100.00;102007.13;5043609;28;20021;-59
2023/06/16 02:05:24;;;;;;;11.25;5.85;;;;;;;17.66;100.00;102005.47;5026987;28;20477;-59
2023/06/16 02:07:51;;;;;;;9.35;5.82;;;;;;;17.64;100.00;102004.66;5026905;28;20162;-59
2023/06/16 02:10:18;;;;;;;8.07;5.70;;;;;;;17.59;100.00;102009.34;5031149;28;20047;-59
2023/06/16 02:12:43;;;;;;;9.48;5.53;;;;;;;17.54;100.00;102009.53;5030988;28;20147;-60
2023/06/16 02:15:09;;;;;;;10.10;5.82;;;;;;;17.49;100.00;102011.53;5042925;28;20029;-59
2023/06/16 02:17:35;;;;;;;9.98;5.88;;;;;;;17.33;100.00;102011.38;5048827;28;20025;-59
2023/06/16 02:20:00;;;;;;;10.40;7.68;;;;;;;17.22;100.00;102018.97;5047353;28;20049;-59
2023/06/16 02:22:25;;;;;;;12.05;8.35;;;;;;;17.13;100.00;102010.44;5049006;28;20087;-60
2023/06/16 02:24:51;;;;;;;12.05;7.57;;;;;;;17.01;100.00;102018.94;5049899;28;20442;-61
2023/06/16 02:27:16;;;;;;;11.13;8.90;;;;;;;16.93;100.00;102022.78;5050522;28;20028;-60
2023/06/16 02:29:41;;;;;;;13.55;8.82;;;;;;;16.86;100.00;102007.97;5050262;28;20037;-59
2023/06/16 02:32:07;;;;;;;20.50;8.90;;;;;;;16.83;100.00;102013.44;5050627;28;20029;-60
2023/06/16 02:34:33;;;;;;;12.95;9.20;;;;;;;16.79;100.00;102011.81;5051106;28;20025;-60
2023/06/16 02:37:00;;;;;;;12.90;8.77;;;;;;;16.78;100.00;102012.75;5049829;28;20025;-60
2023/06/16 02:39:25;;;;;;;13.93;8.52;;;;;;;16.78;100.00;102021.63;5033526;28;20025;-61
2023/06/16 02:41:51;;;;;;;9.95;7.65;;;;;;;16.80;100.00;102008.25;5050352;28;20032;-61
2023/06/16 02:44:16;;;;;;;9.90;7.05;;;;;;;16.87;100.00;102016.84;5050829;28;20021;-60
2023/06/16 02:46:41;;;;;;;11.32;7.20;;;;;;;16.92;100.00;102014.84;5032287;28;20385;-60
2023/06/16 02:49:07;;;;;;;10.30;6.57;;;;;;;17.00;100.00;102006.53;5050683;28;20025;-61
2023/06/16 02:51:33;;;;;;;7.57;6.28;;;;;;;17.00;100.00;102010.06;5050753;28;20108;-59
2023/06/16 02:54:00;;;;;;;13.23;5.50;;;;;;;17.05;100.00;102010.75;5048780;28;20100;-60
2023/06/16 02:56:28;;;;;;;9.32;6.07;;;;;;;17.10;100.00;102007.03;5032962;28;20433;-59
2023/06/16 02:58:53;;;;;;;8.57;5.97;;;;;;;17.11;100.00;102012.31;5050563;28;20021;-59
2023/06/16 03:01:21;;;;;;;12.10;6.60;;;;;;;17.15;100.00;102005.03;5050238;28;20170;-61
2023/06/16 03:03:47;;;;;;;6.63;5.78;;;;;;;17.16;100.00;102014.78;5051124;28;20048;-60
2023/06/16 03:06:14;;;;;;;9.88;6.07;;;;;;;17.19;100.00;102009.31;5050473;28;20469;-59
2023/06/16 03:08:39;;;;;;;8.15;6.07;;;;;;;17.25;100.00;102013.50;5050331;28;20040;-60
2023/06/16 03:11:04;;;;;;;9.90;6.57;;;;;;;17.25;100.00;102013.50;5050594;28;20025;-60
2023/06/16 03:13:30;;;;;;;6.13;5.50;;;;;;;17.22;100.00;102011.81;5050765;28;20025;-60
2023/06/16 03:15:57;;;;;;;9.82;6.03;;;;;;;17.20;100.00;102012.81;5049267;28;20029;-59
2023/06/16 03:18:22;;;;;;;9.02;5.75;;;;;;;17.19;100.00;102011.97;5050426;28;20029;-60
2023/06/16 03:20:48;;;;;;;6.53;5.82;;;;;;;17.22;100.00;102009.16;5049418;28;20059;-60
2023/06/16 03:23:13;;;;;;;7.45;5.32;;;;;;;17.17;100.00;102014.72;5050002;28;20431;-60
2023/06/16 03:25:38;;;;;;;9.02;6.25;;;;;;;17.16;100.00;102015.63;5032436;28;20079;-60
2023/06/16 03:28:06;;;;;;;8.52;6.45;;;;;;;17.16;100.00;102017.44;5049726;28;20029;-60
2023/06/16 03:30:32;;;;;;;13.43;6.70;;;;;;;17.16;100.00;102020.94;5049482;28;20131;-60
2023/06/16 03:32:57;;;;;;;9.77;6.15;;;;;;;17.17;100.00;102022.69;5049828;28;20115;-60
2023/06/16 03:35:22;;;;;;;9.18;6.53;;;;;;;17.14;100.00;102017.50;5031808;28;20108;-61
2023/06/16 03:37:48;;;;;;;8.95;6.80;;;;;;;17.16;100.00;102015.63;5049999;28;20055;-60
2023/06/16 03:40:14;;;;;;;12.48;6.53;;;;;;;17.20;100.00;102024.34;5049688;28;20052;-60
2023/06/16 03:42:39;;;;;;;7.57;6.40;;;;;;;17.21;100.00;102018.09;5049940;28;20531;-60
2023/06/16 03:45:06;;;;;;;7.32;5.97;;;;;;;17.18;100.00;102021.75;5048766;28;20059;-59
2023/06/16 03:47:31;;;;;;;7.70;6.20;;;;;;;17.18;100.00;102019.09;5049702;28;20074;-60
2023/06/16 03:49:58;;;;;;;6.95;6.25;;;;;;;17.15;100.00;102024.56;5049339;28;20111;-60
2023/06/16 03:52:23;;;;;;;10.63;6.15;;;;;;;17.12;100.00;102018.47;5049677;28;20025;-60
2023/06/16 03:54:49;;;;;;;7.68;5.72;;;;;;;17.11;100.00;102019.41;5049888;28;20035;-61
2023/06/16 03:57:15;;;;;;;15.02;6.30;;;;;;;17.12;100.00;102026.47;5049511;28;20033;-60
2023/06/16 03:59:40;;;;;;;10.85;5.80;;;;;;;17.14;100.00;102030.81;5031310;28;20052;-60
2023/06/16 04:02:08;;;;;;;10.98;6.40;;;;;;;17.15;100.00;102032.53;5049335;28;20461;-60
2023/06/16 04:04:35;;;;;;;8.00;6.13;;;;;;;17.16;100.00;102036.94;5049361;28;20107;-60
2023/06/16 04:07:00;;;;;;;9.68;6.28;;;;;;;17.14;100.00;102036.16;5049286;28;20048;-60
2023/06/16 04:09:26;;;;;;;6.22;5.53;;;;;;;17.20;100.00;102037.69;5031270;28;20053;-60
2023/06/16 04:11:52;;;;;;;11.07;5.70;;;;;;;17.29;100.00;102036.41;5049179;28;20377;-60
2023/06/16 04:14:17;;;;;;;7.05;5.15;;;;;;;17.41;100.00;102038.53;5048847;28;20069;-60
2023/06/16 04:16:42;;;;;;;7.00;5.93;;;;;;;17.54;100.00;102035.31;5045538;28;20028;-57
2023/06/16 04:19:09;;;;;;;8.65;5.22;;;;;;;17.52;100.00;102042.53;5048417;28;20108;-58
2023/06/16 04:21:36;;;;;;;8.00;5.70;;;;;;;17.58;100.00;102039.56;5047940;28;20029;-59
2023/06/16 04:24:02;;;;;;;10.93;6.07;;;;;;;17.61;100.00;102039.44;5047812;28;20024;-61
2023/06/16 04:26:28;;;;;;;11.63;5.97;;;;;;;17.62;100.00;102042.97;5030141;28;20314;-60
2023/06/16 04:28:55;;;;;;;6.80;6.05;;;;;;;17.64;100.00;102041.97;5046961;28;20049;-61
2023/06/16 04:31:28;;;;;;;10.25;6.25;;;;;;;17.70;100.00;102040.81;5047088;28;20074;-62
2023/06/16 04:33:56;;;;;;;8.95;5.70;;;;;;;17.85;100.00;102041.94;5047885;28;20029;-60
2023/06/16 04:36:21;;;;;;;6.27;5.57;;;;;;;17.88;100.00;102044.47;5047924;28;20024;-58
2023/06/16 04:38:47;;;;;;;8.65;6.15;;;;;;;17.99;100.00;102048.44;5057885;28;20436;-59
2023/06/16 04:41:12;;;;;;;7.47;5.93;;;;;;;18.12;100.00;102038.09;5051380;28;20025;-59
2023/06/16 04:43:37;;;;;;;6.70;5.70;;;;;;;18.18;100.00;102049.34;5048788;28;20100;-60
2023/06/16 04:46:03;;;;;;;6.53;5.60;;;;;;;18.30;100.00;102045.22;5047005;28;20037;-60
2023/06/16 04:48:28;;;;;;;7.70;6.10;;;;;;;18.27;100.00;102049.84;5048775;28;20025;-60
2023/06/16 04:50:54;;;;;;;9.70;6.25;;;;;;;18.42;100.00;102049.09;5048128;28;20017;-60
2023/06/16 04:53:20;;;;;;;10.48;5.95;;;;;;;18.51;100.00;102053.13;5047803;28;20485;-61
2023/06/16 04:55:45;;;;;;;9.52;5.53;;;;;;;18.66;100.00;102056.00;5047635;28;20024;-59
2023/06/16 04:58:11;;;;;;;5.65;5.05;;;;;;;18.77;100.00;102052.78;5047138;28;20393;-59
2023/06/16 05:00:36;;;;;;;9.93;5.80;;;;;;;18.81;100.00;102049.03;5042962;28;20369;-59
2023/06/16 05:03:02;;;;;;;8.20;5.45;;;;;;;18.94;100.00;102047.47;5047460;28;20033;-61
2023/06/16 05:05:27;;;;;;;7.20;4.93;;;;;;;19.06;100.00;102045.13;5046764;28;20497;-60
2023/06/16 05:07:52;;;;;;;7.53;5.10;;;;;;;19.04;100.00;102047.88;5045600;28;20111;-61
2023/06/16 05:10:18;;;;;;;10.45;5.72;;;;;;;19.17;100.00;102044.59;5047868;28;20358;-60
2023/06/16 05:12:43;;;;;;;10.43;5.80;;;;;;;19.10;100.00;102041.41;5046424;28;20058;-62
2023/06/16 05:15:09;;;;;;;7.78;5.07;;;;;;;19.41;100.00;102044.28;5046328;28;20033;-60
2023/06/16 05:17:37;;;;;;;7.47;4.30;;;;;;;19.48;100.00;102047.50;5047428;28;20431;-59
2023/06/16 05:20:02;;;;;;;6.45;5.25;;;;;;;19.43;100.00;102045.06;5046938;28;20021;-60
2023/06/16 05:22:28;;;;;;;5.18;4.07;;;;;;;19.59;100.00;102037.09;5045786;28;20448;-60
2023/06/16 05:24:54;;;;;;;6.13;4.45;;;;;;;19.36;100.00;102046.34;5044077;28;20035;-60
2023/06/16 05:27:22;;;;;;;6.75;4.35;;;;;;;19.42;100.00;102044.19;5047559;28;20035;-60
2023/06/16 05:29:49;;;;;;;10.13;4.38;;;;;;;19.36;100.00;102044.53;5045531;28;20049;-60
2023/06/16 05:32:15;;;;;;;8.30;4.55;;;;;;;19.44;100.00;102044.09;5046549;28;20476;-60
2023/06/16 05:34:40;;;;;;;8.15;5.25;;;;;;;19.25;100.00;102046.88;5026922;28;20401;-59
2023/06/16 05:37:05;;;;;;;6.80;4.60;;;;;;;19.47;100.00;102037.75;5026271;28;20386;-64
2023/06/16 05:39:31;;;;;;;8.82;4.70;;;;;;;19.61;99.66;102043.22;5033732;28;20484;-62
2023/06/16 05:41:56;;;;;;;9.52;4.55;;;;;;;19.60;99.14;102041.50;5035671;28;20048;-62
2023/06/16 05:44:21;;;;;;;7.50;4.53;;;;;;;19.73;98.50;102043.50;5035354;28;20029;-63
2023/06/16 05:46:46;;;;;;;9.60;4.85;;;;;;;19.89;97.47;102047.09;5038034;28;20029;-62
2023/06/16 05:49:12;;;;;;;8.20;4.72;;;;;;;19.81;97.64;102050.16;5044601;28;20095;-63
2023/06/16 05:51:37;;;;;;;9.02;4.75;;;;;;;19.91;96.70;102050.56;5036532;28;20186;-61
2023/06/16 05:54:03;;;;;;;11.05;5.38;;;;;;;20.02;96.95;102052.66;5036431;28;20044;-62
2023/06/16 05:56:28;;;;;;;14.60;4.65;;;;;;;20.04;97.72;102049.88;5038782;28;20099;-61
2023/06/16 05:58:53;;;;;;;8.65;4.50;;;;;;;20.20;96.90;102052.59;5024465;28;20151;-61
2023/06/16 06:01:18;;;;;;;9.63;5.13;;;;;;;20.24;96.92;102053.28;5043199;28;20122;-60
2023/06/16 06:03:45;;;;;;;12.80;4.93;;;;;;;20.02;97.59;102051.81;5043563;28;20067;-60
2023/06/16 06:06:10;;;;;;;8.23;4.32;;;;;;;20.08;96.95;102044.28;5042086;28;20465;-59
2023/06/16 06:08:36;;;;;;;6.63;3.70;;;;;;;20.23;95.94;102060.47;5014120;28;20033;-60
2023/06/16 06:11:01;;;;;;;10.60;5.20;;;;;;;20.39;95.62;102065.81;5039177;28;20111;-65
2023/06/16 06:13:27;;;;;;;7.78;5.18;;;;;;;20.49;95.10;102060.78;5040950;28;20036;-64
2023/06/16 06:15:52;;;;;;;5.63;4.28;;;;;;;20.65;94.55;102066.13;5042303;28;20481;-62
2023/06/16 06:18:17;;;;;;;5.95;4.13;;;;;;;20.56;95.37;102072.03;5036717;28;20117;-60
2023/06/16 06:20:45;;;;;;;7.50;4.35;;;;;;;20.65;94.08;102071.47;5040852;28;20542;-62
2023/06/16 06:23:11;;;;;;;4.25;3.85;;;;;;;20.73;93.28;102072.84;5023871;28;20033;-60
2023/06/16 06:25:36;;;;;;;8.32;4.68;;;;;;;20.66;91.74;102073.22;5037158;28;20025;-60
2023/06/16 06:28:01;;;;;;;9.13;4.18;;;;;;;20.84;90.74;102076.63;5043206;28;20021;-61
2023/06/16 06:30:27;;;;;;;5.68;3.70;;;;;;;20.98;89.57;102076.81;5040835;28;20033;-60
2023/06/16 06:32:53;;;;;;;5.75;3.58;;;;;;;21.00;88.58;102081.13;5041696;28;20080;-64
2023/06/16 06:35:18;;;;;;;8.55;3.95;;;;;;;21.02;88.46;102078.34;5043066;28;20041;-64
2023/06/16 06:37:43;;;;;;;10.02;4.57;;;;;;;21.10;87.95;102078.75;5042113;28;20151;-62
2023/06/16 06:40:09;;;;;;;6.65;4.10;;;;;;;21.23;87.82;102084.28;5042883;28;20033;-64
2023/06/16 06:42:35;;;;;;;7.00;3.85;;;;;;;21.05;88.09;102083.53;5044192;28;20222;-63
2023/06/16 06:45:01;;;;;;;9.23;3.55;;;;;;;21.23;87.10;102086.94;5042700;28;20087;-64
2023/06/16 06:47:26;;;;;;;3.67;3.28;;;;;;;21.31;87.50;102081.97;5042211;28;20099;-64
2023/06/16 06:49:55;;;;;;;30.00;5.53;;;;;;;21.44;86.09;102082.13;5036928;28;20021;-65
2023/06/16 06:52:21;;;;;;;13.77;4.97;;;;;;;21.34;86.21;102097.00;5039319;28;20029;-66
2023/06/16 06:54:46;;;;;;;19.45;4.93;;;;;;;21.35;86.41;102085.34;5047440;28;20521;-64
2023/06/16 06:57:12;;;;;;;14.18;5.10;;;;;;;21.23;87.23;102086.06;5048232;28;20436;-63
2023/06/16 06:59:39;;;;;;;6.30;4.05;;;;;;;21.25;87.26;102090.38;5048738;28;20025;-64
2023/06/16 07:02:05;;;;;;;17.27;4.32;;;;;;;21.45;84.99;102083.84;5048735;28;20116;-64
2023/06/16 07:04:31;;;;;;;9.63;3.60;;;;;;;21.61;84.10;102079.34;5049567;28;20104;-62
2023/06/16 07:06:56;;;;;;;9.75;3.67;;;;;;;21.39;83.66;102080.66;5049282;28;20495;-63
2023/06/16 07:09:21;;;;;;;6.00;4.13;;;;;;;21.38;84.36;102082.47;5038062;28;20485;-61
2023/06/16 07:11:47;;;;;;;4.30;2.97;;;;;;;21.60;83.45;102083.84;5039949;28;20013;-61
2023/06/16 07:14:13;;;;;;;5.55;3.10;;;;;;;21.94;83.02;102083.59;5037998;28;20031;-62
2023/06/16 07:16:38;;;;;;;5.72;3.45;;;;;;;22.00;82.85;102082.38;5039022;28;20494;-61
2023/06/16 07:19:03;;;;;;;5.53;3.38;;;;;;;22.12;82.57;102081.56;5039613;28;20411;-62
2023/06/16 07:21:29;;;;;;;5.38;3.20;;;;;;;22.16;81.58;102082.25;5023398;28;20056;-62
2023/06/16 07:23:54;;;;;;;4.47;3.22;;;;;;;22.29;79.78;102072.44;5039315;28;20014;-62
2023/06/16 07:26:19;;;;;;;4.35;3.17;;;;;;;22.52;79.14;102074.59;5035330;28;20025;-62
2023/06/16 07:28:45;;;;;;;4.15;3.05;;;;;;;22.57;78.44;102075.13;5038622;28;20045;-61
2023/06/16 07:31:10;;;;;;;5.90;3.28;;;;;;;22.56;76.52;102078.78;5039791;28;20133;-61
2023/06/16 07:33:36;;;;;;;8.40;3.00;;;;;;;22.61;75.35;102076.72;5044676;28;20025;-62
2023/06/16 07:36:01;;;;;;;5.80;3.35;;;;;;;22.66;75.89;102079.09;5040018;28;20031;-60
2023/06/16 07:38:27;;;;;;;7.30;3.30;;;;;;;22.83;74.20;102086.03;5020998;28;20039;-61
2023/06/16 07:40:52;;;;;;;6.82;3.30;;;;;;;22.95;73.07;102082.53;5039359;28;20535;-63
2023/06/16 07:43:17;;;;;;;5.07;2.85;;;;;;;22.88;72.67;102093.78;5035934;28;20055;-63
2023/06/16 07:45:43;;;;;;;10.23;3.60;;;;;;;22.78;70.02;102086.31;5038259;28;20052;-60
2023/06/16 07:48:09;;;;;;;16.58;3.20;;;;;;;22.87;69.66;102092.91;5036657;28;20068;-60
2023/06/16 07:50:35;;;;;;;7.93;3.20;;;;;;;23.06;66.51;102087.16;5038022;28;20087;-61
2023/06/16 07:53:00;;;;;;;13.38;3.30;;;;;;;23.03;64.22;102091.88;5038049;28;20080;-61
2023/06/16 07:55:25;;;;;;;5.35;3.28;;;;;;;23.15;65.09;102087.50;5028794;28;20116;-61
2023/06/16 07:57:51;;;;;;;6.97;3.08;;;;;;;23.28;65.54;102088.38;5028488;28;20022;-60
2023/06/16 08:00:18;;;;;;;3.17;2.90;;;;;;;23.27;64.25;102085.81;5029338;28;20025;-62
2023/06/16 08:02:44;;;;;;;3.85;3.28;;;;;;;23.45;63.74;102081.03;5028749;28;20018;-63
2023/06/16 08:05:11;;;;;;;3.92;2.83;;;;;;;23.75;62.15;102076.28;5028436;28;20040;-61
2023/06/16 08:07:36;;;;;;;5.70;3.00;;;;;;;23.86;62.23;102079.06;5010719;28;20441;-57
2023/06/16 08:10:02;;;;;;;4.93;2.90;;;;;;;23.85;61.30;102080.03;5029492;28;20057;-60
2023/06/16 08:12:28;;;;;;;5.55;3.17;;;;;;;23.96;59.33;102073.88;5029499;28;20028;-60
2023/06/16 08:14:53;;;;;;;4.53;2.90;;;;;;;24.03;58.53;102079.69;5028543;28;20022;-62
2023/06/16 08:17:19;;;;;;;6.00;3.20;;;;;;;24.00;59.65;102072.69;5029594;28;20501;-59
2023/06/16 08:19:45;;;;;;;5.38;2.70;;;;;;;24.13;59.40;102075.38;5028823;28;20091;-59
2023/06/16 08:22:11;;;;;;;6.32;2.97;;;;;;;24.18;59.51;102075.91;5036667;28;20029;-55
2023/06/16 08:24:36;;;;;;;8.32;2.97;;;;;;;24.31;57.52;102077.69;5047713;28;20033;-60
2023/06/16 08:27:04;;;;;;;298.38;41.15;;;;;;;24.12;55.67;102070.94;5047448;28;20032;-65
2023/06/16 08:29:30;;;;;;;112.22;15.93;;;;;;;24.18;56.79;102075.91;5047952;28;20049;-61
2023/06/16 08:31:56;;;;;;;76.03;12.25;;;;;;;24.29;55.72;102076.97;5048481;28;20040;-64
2023/06/16 08:34:21;;;;;;;19.48;4.72;;;;;;;24.58;55.88;102072.09;5048245;28;20029;-61
2023/06/16 08:36:47;;;;;;;13.90;3.33;;;;;;;24.58;54.97;102072.09;5048394;28;20103;-61
2023/06/16 08:39:12;;;;;;;9.48;3.95;;;;;;;24.54;55.10;102072.44;5030573;28;20114;-64
2023/06/16 08:41:38;;;;;;;6.68;3.20;;;;;;;24.58;52.87;102073.94;5047412;28;20478;-63
2023/06/16 08:44:04;;;;;;;3.72;2.97;;;;;;;24.50;53.72;102073.66;5047593;28;20128;-61
2023/06/16 08:46:30;;;;;;;7.00;3.08;;;;;;;24.42;54.51;102072.38;5039705;28;20020;-57
2023/06/16 08:48:56;;;;;;;4.18;3.08;;;;;;;24.39;55.24;102069.06;5048104;28;20538;-61
2023/06/16 08:51:24;;;;;;;7.40;3.40;;;;;;;24.54;54.85;102067.94;5048519;28;20090;-59
2023/06/16 08:53:52;;;;;;;5.40;3.00;;;;;;;24.52;54.15;102066.28;5046873;28;20493;-59
2023/06/16 08:56:18;;;;;;;5.88;3.25;;;;;;;24.52;52.76;102072.56;5047655;28;20561;-60
2023/06/16 08:58:46;;;;;;;3.95;2.50;;;;;;;24.62;52.08;102061.94;5047522;28;20025;-60
2023/06/16 09:01:12;;;;;;;5.30;2.90;;;;;;;24.69;52.38;102065.91;5047048;28;20090;-60
2023/06/16 09:03:37;;;;;;;3.33;2.67;;;;;;;25.03;51.38;102069.72;5027854;28;20029;-62
2023/06/16 09:06:04;;;;;;;5.25;2.67;;;;;;;25.07;48.34;102063.16;5036093;28;20032;-60
2023/06/16 09:08:29;;;;;;;6.35;3.42;;;;;;;24.56;48.54;102057.88;5032289;28;20477;-61
2023/06/16 09:10:55;;;;;;;250.65;32.33;;;;;;;24.74;48.07;102061.03;5038318;28;20029;-61
2023/06/16 09:13:22;;;;;;;27.98;5.20;;;;;;;24.94;42.44;102066.78;5045373;28;20035;-63
2023/06/16 09:15:48;;;;;;;3.22;2.70;;;;;;;24.96;43.52;102070.19;5027820;28;20025;-61
2023/06/16 09:18:15;;;;;;;8.57;3.22;;;;;;;25.16;46.00;102070.50;5027673;28;20262;-60
2023/06/16 09:20:44;;;;;;;5.85;3.28;;;;;;;25.34;45.59;102067.34;5046317;28;20512;-61
2023/06/16 09:23:10;;;;;;;5.88;3.20;;;;;;;25.45;45.06;102075.47;5046451;28;20039;-61
2023/06/16 09:25:37;;;;;;;9.20;3.30;;;;;;;25.59;43.40;102070.84;5031216;28;20078;-60
2023/06/16 09:28:08;;;;;;;4.45;3.05;;;;;;;25.54;42.23;102062.22;5045527;28;20029;-59
2023/06/16 09:30:36;;;;;;;4.85;2.72;;;;;;;25.39;42.17;102065.16;5045820;28;20372;-61
2023/06/16 09:33:02;;;;;;;5.68;2.80;;;;;;;25.66;40.91;102072.09;5039477;28;20065;-63
2023/06/16 09:35:29;;;;;;;6.03;2.70;;;;;;;25.70;43.37;102070.84;5045317;28;20043;-60
2023/06/16 09:37:57;;;;;;;5.57;3.00;;;;;;;25.52;44.00;102069.59;5044582;28;20035;-61
2023/06/16 09:40:30;;;;;;;4.55;2.40;;;;;;;25.72;43.33;102071.59;5046082;28;20025;-60
2023/06/16 09:42:58;;;;;;;6.03;2.97;;;;;;;25.94;43.62;102069.88;5046317;28;20136;-59
2023/06/16 09:45:28;;;;;;;7.00;2.67;;;;;;;25.72;44.50;102065.34;5044254;28;20120;-60
2023/06/16 09:47:53;;;;;;;4.60;2.92;;;;;;;25.91;43.01;102066.56;5042042;28;20033;-62
2023/06/16 09:50:23;;;;;;;12.68;3.10;;;;;;;25.99;44.56;102056.88;5045716;28;20021;-61
2023/06/16 09:52:48;;;;;;;11.95;3.10;;;;;;;26.10;44.56;102058.69;5045777;28;20013;-60
2023/06/16 09:55:15;;;;;;;2.80;2.60;;;;;;;26.11;44.12;102049.63;5044472;28;20374;-60
2023/06/16 09:57:44;;;;;;;4.13;2.55;;;;;;;26.20;43.33;102053.41;5045533;28;20029;-62
2023/06/16 10:00:15;;;;;;;5.75;2.67;;;;;;;26.32;42.65;102050.69;5027315;28;20545;-61
2023/06/16 10:02:51;;;;;;;5.97;2.75;;;;;;;26.42;42.35;102050.78;5045968;28;20040;-62
2023/06/16 10:05:19;;;;;;;7.07;2.95;;;;;;;26.55;40.56;102058.72;5045557;28;20055;-60
2023/06/16 10:07:55;;;;;;;7.65;3.28;;;;;;;26.45;41.42;102047.81;5046126;28;20029;-59
2023/06/16 10:10:25;;;;;;;3.47;3.10;;;;;;;26.38;41.21;102047.47;5045981;28;20033;-61
2023/06/16 10:12:51;;;;;;;5.82;3.03;;;;;;;26.75;42.09;102046.22;5028254;28;20061;-61
2023/06/16 10:15:23;;;;;;;6.15;2.72;;;;;;;26.44;41.12;102049.69;5045352;28;20037;-60
2023/06/16 10:17:50;;;;;;;3.33;2.78;;;;;;;26.51;38.81;102041.06;5028499;28;20068;-60
2023/06/16 10:20:18;;;;;;;3.08;2.78;;;;;;;26.64;37.70;102036.34;5046518;28;20029;-60
2023/06/16 10:22:44;;;;;;;4.93;2.92;;;;;;;26.32;39.12;102040.75;5047064;28;20033;-61
2023/06/16 10:25:10;;;;;;;4.30;2.72;;;;;;;26.55;39.44;102046.06;5029301;28;20021;-60
2023/06/16 10:27:36;;;;;;;19.13;3.50;;;;;;;26.63;41.08;102045.41;5047438;28;20533;-59
2023/06/16 10:30:03;;;;;;;7.57;2.67;;;;;;;26.69;39.30;102042.22;5030533;28;20057;-61
2023/06/16 10:32:28;;;;;;;22.63;3.72;;;;;;;26.45;37.85;102034.31;5051023;28;20038;-60
2023/06/16 10:34:56;;;;;;;23.85;3.42;;;;;;;26.67;38.50;102044.16;5050754;28;20048;-60
2023/06/16 10:37:26;;;;;;;3.53;2.90;;;;;;;27.01;36.59;102035.06;5051187;28;20041;-59
2023/06/16 10:40:04;;;;;;;4.53;2.78;;;;;;;26.70;37.45;102029.56;5051148;28;20090;-60
2023/06/16 10:42:33;;;;;;;5.82;3.00;;;;;;;26.72;36.57;102027.56;5050633;28;20021;-59
2023/06/16 10:45:26;;;;;;;10.43;3.22;;;;;;;26.79;39.09;102025.22;5050105;28;20104;-59
2023/06/16 10:47:58;;;;;;;9.93;2.88;;;;;;;27.15;37.33;102033.88;5050349;28;20028;-60
2023/06/16 10:50:39;;;;;;;5.75;2.92;;;;;;;27.40;34.07;102025.47;5050621;28;20040;-60
2023/06/16 10:53:23;;;;;;;24.02;3.55;;;;;;;27.46;36.97;102028.50;5050564;28;20691;-59
2023/06/16 10:56:04;;;;;;;4.85;2.72;;;;;;;27.29;37.25;102037.22;5051177;28;20053;-61
2023/06/16 10:58:29;;;;;;;8.98;2.92;;;;;;;27.25;36.02;102032.09;5050682;28;20111;-60
2023/06/16 11:01:01;;;;;;;4.07;3.03;;;;;;;27.69;37.64;102022.91;5050871;28;20116;-59
2023/06/16 11:03:35;;;;;;;3.55;2.70;;;;;;;27.74;35.35;102011.66;5050750;28;20025;-60
2023/06/16 11:06:01;;;;;;;4.88;3.20;;;;;;;27.99;34.00;102020.31;5050396;28;20034;-61
2023/06/16 11:08:28;;;;;;;3.53;2.78;;;;;;;28.27;33.27;102020.50;5032800;28;20032;-65
2023/06/16 11:11:01;;;;;;;4.00;2.95;;;;;;;28.38;35.14;102022.22;5050506;28;20366;-60
2023/06/16 11:13:30;;;;;;;4.80;2.60;;;;;;;28.43;35.65;102019.94;5050089;28;20025;-61
2023/06/16 11:15:55;;;;;;;3.97;3.10;;;;;;;28.36;34.78;102013.41;5048776;28;20099;-61
2023/06/16 11:18:29;;;;;;;97.05;6.78;;;;;;;28.29;35.58;102012.22;5042861;28;20121;-60